createdAt,value
2018-02-27T00:00:16.624Z,70.86
2018-02-27T00:01:31.293Z,70.38
2018-02-27T00:02:16.681Z,70.67
2018-02-27T00:03:16.647Z,70.57
2018-02-27T00:04:16.665Z,71.04
2018-02-27T00:05:16.668Z,71.23
2018-02-27T00:06:16.674Z,71.89
2018-02-27T00:07:16.682Z,71.7
2018-02-27T00:08:16.695Z,71.33
2018-02-27T00:09:16.715Z,71.51
2018-02-27T00:10:16.706Z,71.51
2018-02-27T00:11:16.718Z,71.42
2018-02-27T00:12:16.726Z,71.7
2018-02-27T00:13:16.745Z,71.51
2018-02-27T00:14:16.747Z,71.89
2018-02-27T00:15:16.759Z,71.98
2018-02-27T00:16:16.762Z,72.36
2018-02-27T00:17:16.764Z,71.7
2018-02-27T00:18:16.779Z,71.98
2018-02-27T00:19:16.784Z,71.7
2018-02-27T00:20:16.802Z,71.89
2018-02-27T00:21:16.810Z,71.42
2018-02-27T00:22:16.822Z,71.98
2018-02-27T00:23:16.829Z,71.8
2018-02-27T00:24:16.827Z,71.33
2018-02-27T00:25:16.847Z,72.08
2018-02-27T00:26:16.854Z,71.61
2018-02-27T00:27:16.862Z,72.08
2018-02-27T00:28:16.857Z,72.08
2018-02-27T00:29:16.888Z,72.08
2018-02-27T00:30:16.887Z,72.36
2018-02-27T00:31:16.883Z,72.55
2018-02-27T00:32:16.639Z,72.55
2018-02-27T00:33:31.558Z,72.55
2018-02-27T00:34:16.908Z,72.55
2018-02-27T00:35:16.659Z,72.27
2018-02-27T00:36:16.930Z,72.08
2018-02-27T00:37:16.941Z,72.27
2018-02-27T00:38:16.939Z,72.55
2018-02-27T00:39:16.950Z,72.64
2018-02-27T00:40:16.967Z,72.92
2018-02-27T00:41:16.966Z,73.11
2018-02-27T00:42:16.980Z,73.02
2018-02-27T00:44:16.989Z,73.49
2018-02-27T00:46:17.007Z,73.3
2018-02-27T00:47:17.022Z,74.15
2018-02-27T00:48:17.024Z,74.05
2018-02-27T00:49:31.690Z,73.77
2018-02-27T00:50:17.053Z,73.87
2018-02-27T00:51:17.051Z,73.39
2018-02-27T00:52:17.070Z,73.77
2018-02-27T00:53:17.076Z,74.05
2018-02-27T00:54:17.083Z,74.05
2018-02-27T00:55:17.092Z,73.58
2018-02-27T00:56:17.101Z,73.77
2018-02-27T00:57:17.112Z,73.96
2018-02-27T00:58:17.105Z,73.96
2018-02-27T00:59:17.132Z,73.96
2018-02-27T01:01:17.133Z,74.34
2018-02-27T01:02:17.140Z,74.62
2018-02-27T01:03:17.149Z,74.43
2018-02-27T01:04:17.157Z,74.15
2018-02-27T01:05:31.822Z,74.53
2018-02-27T01:06:17.173Z,75
2018-02-27T01:07:17.181Z,74.81
2018-02-27T01:08:17.199Z,74.71
2018-02-27T01:09:17.212Z,75
2018-02-27T01:10:17.215Z,74.34
2018-02-27T01:11:16.955Z,74.15
2018-02-27T01:12:17.227Z,74.34
2018-02-27T01:13:17.234Z,74.34
2018-02-27T01:14:17.240Z,74.43
2018-02-27T01:15:17.254Z,74.34
2018-02-27T01:16:17.266Z,74.24
2018-02-27T01:17:17.264Z,74.05
2018-02-27T01:18:17.277Z,74.34
2018-02-27T01:19:17.280Z,74.58
2018-02-27T01:20:17.289Z,74.81
2018-02-27T01:21:31.953Z,75.19
2018-02-27T01:22:17.303Z,75.38
2018-02-27T01:23:17.314Z,75.28
2018-02-27T01:24:17.334Z,75.38
2018-02-27T01:25:17.342Z,75.19
2018-02-27T01:26:17.350Z,75.75
2018-02-27T01:27:17.343Z,75.38
2018-02-27T01:28:17.352Z,75.38
2018-02-27T01:29:17.364Z,75.56
2018-02-27T01:30:17.371Z,75.62
2018-02-27T01:31:17.392Z,75.34
2018-02-27T01:32:17.385Z,75.56
2018-02-27T01:33:17.392Z,76.13
2018-02-27T01:36:32.083Z,75.24
2018-02-27T01:37:17.429Z,75.24
2018-02-27T01:38:17.443Z,75.24
2018-02-27T01:39:17.449Z,75.15
2018-02-27T01:40:17.454Z,75.15
2018-02-27T01:41:17.462Z,75.24
2018-02-27T01:43:17.476Z,75.09
2018-02-27T01:44:17.493Z,74.68
2018-02-27T01:45:17.497Z,74.68
2018-02-27T01:47:17.509Z,74.81
2018-02-27T01:48:17.529Z,74.71
2018-02-27T01:49:17.539Z,74.71
2018-02-27T01:50:17.534Z,74.71
2018-02-27T01:51:17.557Z,74.58
2018-02-27T01:52:17.554Z,75.24
2018-02-27T01:53:17.561Z,75.34
2018-02-27T01:54:17.578Z,75.62
2018-02-27T01:55:17.577Z,75.9
2018-02-27T01:56:17.595Z,76.84
2018-02-27T01:57:17.587Z,77.31
2018-02-27T01:58:17.342Z,77.69
2018-02-27T01:59:17.616Z,77.88
2018-02-27T02:01:17.630Z,79.01
2018-02-27T02:02:17.380Z,79.01
2018-02-27T02:03:17.682Z,79.1
2018-02-27T02:04:17.656Z,79.1
2018-02-27T02:05:17.659Z,79.01
2018-02-27T02:06:17.679Z,79.2
2018-02-27T02:07:17.679Z,79.01
2018-02-27T02:08:32.336Z,79.2
2018-02-27T02:09:17.689Z,79.1
2018-02-27T02:10:17.699Z,79.01
2018-02-27T02:11:17.704Z,79.39
2018-02-27T02:13:17.729Z,80.05
2018-02-27T02:14:17.733Z,80.14
2018-02-27T02:15:17.488Z,80.05
2018-02-27T02:16:17.742Z,80.42
2018-02-27T02:18:17.500Z,80.14
2018-02-27T02:19:17.770Z,80.42
2018-02-27T02:20:17.777Z,80.14
2018-02-27T02:21:17.786Z,80.14
2018-02-27T02:22:17.803Z,79.76
2018-02-27T02:23:17.799Z,80.05
2018-02-27T02:24:32.470Z,79.95
2018-02-27T02:25:17.817Z,80.33
2018-02-27T02:26:17.825Z,80.14
2018-02-27T02:27:17.581Z,80.9
2018-02-27T02:28:17.844Z,81.08
2018-02-27T02:29:17.857Z,81.74
2018-02-27T02:30:17.857Z,81.84
2018-02-27T02:31:17.866Z,82.4
2018-02-27T02:32:17.889Z,83.15
2018-02-27T02:33:17.892Z,82.87
2018-02-27T02:34:17.901Z,83.53
2018-02-27T02:37:17.914Z,83.81
2018-02-27T02:38:17.930Z,83.81
2018-02-27T02:39:17.953Z,83.91
2018-02-27T02:40:32.593Z,83.72
2018-02-27T02:41:17.947Z,83.44
2018-02-27T02:42:17.692Z,83.53
2018-02-27T02:43:17.702Z,83.91
2018-02-27T02:44:17.969Z,83.91
2018-02-27T02:45:17.973Z,84
2018-02-27T02:46:17.988Z,83.62
2018-02-27T02:47:18.004Z,83.62
2018-02-27T02:48:18.009Z,84
2018-02-27T02:49:18.008Z,83.53
2018-02-27T02:51:18.031Z,84.28
2018-02-27T02:52:18.036Z,83.81
2018-02-27T02:53:18.042Z,83.81
2018-02-27T02:54:18.047Z,84.47
2018-02-27T02:55:18.069Z,84.38
2018-02-27T02:56:32.721Z,84.28
2018-02-27T02:57:18.068Z,84.56
2018-02-27T02:58:18.082Z,84.28
2018-02-27T02:59:18.084Z,84.66
2018-02-27T03:01:17.854Z,84.85
2018-02-27T03:02:17.862Z,84.85
2018-02-27T03:03:18.127Z,84.75
2018-02-27T03:04:18.136Z,84.47
2018-02-27T03:05:18.140Z,84.94
2018-02-27T03:06:17.892Z,85.04
2018-02-27T03:07:18.157Z,85.13
2018-02-27T03:08:18.169Z,84.94
2018-02-27T03:09:18.165Z,85.04
2018-02-27T03:10:32.833Z,85.13
2018-02-27T03:11:32.839Z,84.28
2018-02-27T03:12:18.195Z,84.38
2018-02-27T03:13:18.198Z,84.28
2018-02-27T03:14:18.214Z,84.09
2018-02-27T03:16:18.226Z,84.47
2018-02-27T03:17:18.238Z,84.38
2018-02-27T03:18:18.240Z,83.91
2018-02-27T03:19:18.253Z,84.09
2018-02-27T03:20:18.257Z,84.19
2018-02-27T03:21:18.010Z,84.47
2018-02-27T03:22:18.281Z,84.56
2018-02-27T03:23:18.288Z,84.09
2018-02-27T03:24:18.286Z,84.66
2018-02-27T03:25:18.303Z,84.47
2018-02-27T03:27:18.310Z,83.91
2018-02-27T03:28:18.330Z,83.62
2018-02-27T03:29:18.321Z,84.09
2018-02-27T03:30:18.347Z,83.72
2018-02-27T03:31:18.356Z,83.81
2018-02-27T03:32:18.346Z,84.28
2018-02-27T03:33:18.358Z,84.19
2018-02-27T03:34:18.376Z,84.85
2018-02-27T03:35:18.368Z,85.32
2018-02-27T03:36:18.382Z,85.32
2018-02-27T03:37:18.386Z,85.79
2018-02-27T03:38:18.402Z,86.26
2018-02-27T03:40:18.420Z,86.73
2018-02-27T03:41:18.424Z,87.11
2018-02-27T03:42:18.432Z,87.49
2018-02-27T03:43:33.090Z,87.3
2018-02-27T03:44:18.445Z,87.49
2018-02-27T03:45:18.449Z,86.92
2018-02-27T03:46:18.464Z,86.83
2018-02-27T03:47:18.463Z,87.2
2018-02-27T03:48:18.480Z,87.11
2018-02-27T03:49:18.486Z,86.73
2018-02-27T03:50:18.497Z,86.36
2018-02-27T03:51:18.493Z,86.64
2018-02-27T03:52:18.504Z,86.73
2018-02-27T03:53:18.508Z,86.83
2018-02-27T03:54:18.260Z,86.07
2018-02-27T03:55:18.526Z,86.07
2018-02-27T03:56:18.284Z,86.26
2018-02-27T03:58:18.560Z,85.98
2018-02-27T03:59:33.215Z,85.98
2018-02-27T04:00:18.577Z,85.88
2018-02-27T04:01:18.585Z,85.98
2018-02-27T04:02:18.597Z,86.07
2018-02-27T04:03:18.594Z,85.7
2018-02-27T04:04:18.338Z,86.26
2018-02-27T04:05:18.602Z,86.17
2018-02-27T04:06:18.624Z,86.17
2018-02-27T04:07:18.360Z,86.64
2018-02-27T04:08:18.693Z,86.64
2018-02-27T04:09:18.634Z,86.36
2018-02-27T04:10:18.658Z,87.2
2018-02-27T04:11:18.657Z,86.83
2018-02-27T04:12:18.656Z,86.83
2018-02-27T04:13:18.405Z,87.58
2018-02-27T04:14:18.734Z,87.77
2018-02-27T04:15:33.336Z,87.77
2018-02-27T04:16:18.700Z,87.86
2018-02-27T04:17:18.696Z,87.86
2018-02-27T04:18:18.703Z,87.86
2018-02-27T04:19:18.718Z,87.68
2018-02-27T04:20:18.721Z,87.86
2018-02-27T04:21:18.740Z,87.58
2018-02-27T04:22:18.736Z,87.96
2018-02-27T04:23:18.503Z,87.96
2018-02-27T04:24:18.759Z,87.68
2018-02-27T04:25:18.759Z,87.86
2018-02-27T04:27:18.783Z,87.58
2018-02-27T04:28:18.785Z,87.96
2018-02-27T04:29:18.806Z,87.86
2018-02-27T04:30:18.799Z,87.58
2018-02-27T04:31:33.462Z,87.68
2018-02-27T04:32:18.823Z,87.68
2018-02-27T04:33:18.822Z,87.77
2018-02-27T04:34:18.834Z,87.86
2018-02-27T04:35:18.834Z,87.86
2018-02-27T04:36:18.839Z,87.96
2018-02-27T04:37:18.847Z,87.77
2018-02-27T04:38:18.857Z,87.68
2018-02-27T04:39:18.877Z,87.96
2018-02-27T04:40:18.872Z,88.05
2018-02-27T04:41:18.887Z,87.96
2018-02-27T04:42:18.890Z,87.86
2018-02-27T04:44:18.905Z,87.96
2018-02-27T04:46:33.580Z,88.15
2018-02-27T04:47:18.928Z,87.58
2018-02-27T04:49:18.945Z,87.77
2018-02-27T04:50:18.960Z,87.96
2018-02-27T04:51:18.966Z,87.96
2018-02-27T04:52:18.978Z,88.05
2018-02-27T04:53:18.990Z,88.9
2018-02-27T04:55:18.733Z,89.09
2018-02-27T04:56:19.002Z,89.28
2018-02-27T04:57:19.007Z,89.56
2018-02-27T04:59:19.018Z,90.31
2018-02-27T05:00:19.038Z,90.88
2018-02-27T05:01:18.782Z,90.88
2018-02-27T05:02:19.041Z,90.97
2018-02-27T05:03:19.048Z,91.49
2018-02-27T05:04:19.079Z,91.77
2018-02-27T05:05:19.070Z,91.96
2018-02-27T05:06:19.080Z,92.05
2018-02-27T05:07:19.088Z,92.33
2018-02-27T05:08:19.086Z,92.43
2018-02-27T05:09:19.103Z,92.15
2018-02-27T05:10:18.845Z,92.33
2018-02-27T05:11:19.124Z,91.77
2018-02-27T05:12:19.126Z,92.29
2018-02-27T05:13:19.127Z,91.86
2018-02-27T05:14:19.140Z,92.05
2018-02-27T05:15:19.142Z,91.96
2018-02-27T05:16:19.217Z,91.77
2018-02-27T05:17:18.903Z,92.38
2018-02-27T05:18:33.823Z,92.33
2018-02-27T05:19:19.170Z,92.19
2018-02-27T05:20:19.187Z,92
2018-02-27T05:21:19.185Z,92
2018-02-27T05:22:19.193Z,91.53
2018-02-27T05:23:19.196Z,91.91
2018-02-27T05:24:18.953Z,91.77
2018-02-27T05:25:19.221Z,91.96
2018-02-27T05:26:19.224Z,92.33
2018-02-27T05:27:19.238Z,91.96
2018-02-27T05:28:19.241Z,91.67
2018-02-27T05:29:19.259Z,92.1
2018-02-27T05:30:19.258Z,92.66
2018-02-27T05:31:19.270Z,92.38
2018-02-27T05:32:19.279Z,92.66
2018-02-27T05:33:19.280Z,92.47
2018-02-27T05:34:33.942Z,92.47
2018-02-27T05:35:19.310Z,92.29
2018-02-27T05:37:19.314Z,92.71
2018-02-27T05:38:19.317Z,92.95
2018-02-27T05:39:19.323Z,92.66
2018-02-27T05:40:19.433Z,93.13
2018-02-27T05:41:19.335Z,92.47
2018-02-27T05:42:19.096Z,92.62
2018-02-27T05:43:19.097Z,93.37
2018-02-27T05:44:19.354Z,93.65
2018-02-27T05:45:19.111Z,93.18
2018-02-27T05:46:19.377Z,93.65
2018-02-27T05:48:19.394Z,93.56
2018-02-27T05:49:19.435Z,94.22
2018-02-27T05:50:34.063Z,94.22
2018-02-27T05:51:19.429Z,94.31
2018-02-27T05:52:19.425Z,93.94
2018-02-27T05:53:19.165Z,94.69
2018-02-27T05:54:19.443Z,94.69
2018-02-27T05:55:19.442Z,95.35
2018-02-27T05:56:19.445Z,95.16
2018-02-27T05:57:19.464Z,95.16
2018-02-27T05:58:19.476Z,95.16
2018-02-27T05:59:19.470Z,95.44
2018-02-27T06:00:19.223Z,95.54
2018-02-27T06:01:19.523Z,95.63
2018-02-27T06:02:19.506Z,95.73
2018-02-27T06:03:19.512Z,95.82
2018-02-27T06:04:19.251Z,95.25
2018-02-27T06:05:19.515Z,95.54
2018-02-27T06:06:34.182Z,95.63
2018-02-27T06:07:19.534Z,96.39
2018-02-27T06:08:19.538Z,95.82
2018-02-27T06:09:19.543Z,95.63
2018-02-27T06:10:19.552Z,95.63
2018-02-27T06:11:19.561Z,95.44
2018-02-27T06:12:19.579Z,95.44
2018-02-27T06:13:19.318Z,95.63
2018-02-27T06:14:19.593Z,95.25
2018-02-27T06:15:19.598Z,95.63
2018-02-27T06:16:19.597Z,95.54
2018-02-27T06:17:19.603Z,95.4
2018-02-27T06:18:19.613Z,95.4
2018-02-27T06:19:19.619Z,95.4
2018-02-27T06:20:19.631Z,95.49
2018-02-27T06:21:34.294Z,95.68
2018-02-27T06:22:19.655Z,95.21
2018-02-27T06:23:19.656Z,95.02
2018-02-27T06:24:19.666Z,95.21
2018-02-27T06:25:19.681Z,94.45
2018-02-27T06:27:19.692Z,94.74
2018-02-27T06:28:19.688Z,94.74
2018-02-27T06:29:19.710Z,95.02
2018-02-27T06:30:19.719Z,94.93
2018-02-27T06:32:19.728Z,94.83
2018-02-27T06:33:19.734Z,94.36
2018-02-27T06:34:19.756Z,94.17
2018-02-27T06:35:19.749Z,94.45
2018-02-27T06:36:19.760Z,94.36
2018-02-27T06:37:19.851Z,94.27
2018-02-27T06:38:19.782Z,94.27
2018-02-27T06:39:19.530Z,94.64
2018-02-27T06:40:19.808Z,93.79
2018-02-27T06:41:19.814Z,93.7
2018-02-27T06:42:19.826Z,93.79
2018-02-27T06:43:19.829Z,92.85
2018-02-27T06:44:19.585Z,91.72
2018-02-27T06:45:19.849Z,91.53
2018-02-27T06:46:19.880Z,90.97
2018-02-27T06:47:19.918Z,90.69
2018-02-27T06:48:19.898Z,90.08
2018-02-27T06:49:19.897Z,89.98
2018-02-27T06:50:19.907Z,88.95
2018-02-27T06:51:19.663Z,89.13
2018-02-27T06:53:34.607Z,87.06
2018-02-27T06:54:19.962Z,86.59
2018-02-27T06:55:20.033Z,85.55
2018-02-27T06:56:19.982Z,84.99
2018-02-27T06:57:20.007Z,84.52
2018-02-27T06:58:20.008Z,83.29
2018-02-27T06:59:19.771Z,82.73
2018-02-27T07:00:20.261Z,81.41
2018-02-27T07:01:20.052Z,81.22
2018-02-27T07:02:20.075Z,80.27
2018-02-27T07:03:20.074Z,80.46
2018-02-27T07:04:20.092Z,80.56
2018-02-27T07:05:19.844Z,80.08
2018-02-27T07:06:20.180Z,80.27
2018-02-27T07:07:20.127Z,79.99
2018-02-27T07:08:19.881Z,79.43
2018-02-27T07:09:34.801Z,79.52
2018-02-27T07:10:20.231Z,79.24
2018-02-27T07:11:20.164Z,79.43
2018-02-27T07:12:20.190Z,78.96
2018-02-27T07:13:20.201Z,78.77
2018-02-27T07:14:20.206Z,78.49
2018-02-27T07:15:20.220Z,78.02
2018-02-27T07:16:20.224Z,78.3
2018-02-27T07:17:20.234Z,77.64
2018-02-27T07:18:20.240Z,77.55
2018-02-27T07:19:20.253Z,77.07
2018-02-27T07:20:20.276Z,76.7
2018-02-27T07:21:20.274Z,76.51
2018-02-27T07:22:20.032Z,76.32
2018-02-27T07:24:20.051Z,75.51
2018-02-27T07:25:34.974Z,74.38
2018-02-27T07:26:20.332Z,74.57
2018-02-27T07:27:20.079Z,73.62
2018-02-27T07:28:20.353Z,73.72
2018-02-27T07:29:20.361Z,73.43
2018-02-27T07:30:20.375Z,72.4
2018-02-27T07:31:20.395Z,71.92
2018-02-27T07:32:20.404Z,71.92
2018-02-27T07:33:20.411Z,71.64
2018-02-27T07:34:20.426Z,71.36
2018-02-27T07:36:20.457Z,70.79
2018-02-27T07:37:20.456Z,70.98
2018-02-27T07:38:20.471Z,70.7
2018-02-27T07:39:20.227Z,69.95
2018-02-27T07:40:20.513Z,70.14
2018-02-27T07:41:35.173Z,69.76
2018-02-27T07:42:20.535Z,68.91
2018-02-27T07:43:20.542Z,69.19
2018-02-27T07:44:20.564Z,68.25
2018-02-27T07:45:20.567Z,68.15
2018-02-27T07:46:20.584Z,67.81
2018-02-27T07:47:20.338Z,67.34
2018-02-27T07:48:20.607Z,66.4
2018-02-27T07:49:20.622Z,66.21
2018-02-27T07:50:20.645Z,66.58
2018-02-27T07:51:20.657Z,66.21
2018-02-27T07:52:20.668Z,65.83
2018-02-27T07:53:20.679Z,66.02
2018-02-27T07:54:20.696Z,65.92
2018-02-27T07:55:20.703Z,65.73
2018-02-27T07:56:35.375Z,65.55
2018-02-27T07:57:20.476Z,65.83
2018-02-27T07:59:20.783Z,65.83
2018-02-27T08:00:20.768Z,65.92
2018-02-27T08:01:20.786Z,65.55
2018-02-27T08:02:20.801Z,64.98
2018-02-27T08:03:20.822Z,64.61
2018-02-27T08:04:20.826Z,63.85
2018-02-27T08:05:20.586Z,63.57
2018-02-27T08:06:20.870Z,63.57
2018-02-27T08:07:20.867Z,62.53
2018-02-27T08:08:20.889Z,62.25
2018-02-27T08:09:20.894Z,62.15
2018-02-27T08:10:20.907Z,62.28
2018-02-27T08:11:20.919Z,61.33
2018-02-27T08:12:20.945Z,60.77
2018-02-27T08:13:20.955Z,60.21
2018-02-27T08:14:20.960Z,60.77
2018-02-27T08:15:20.995Z,60.11
2018-02-27T08:16:20.991Z,59.64
2018-02-27T08:17:21.022Z,59.26
2018-02-27T08:18:21.030Z,59.19
2018-02-27T08:19:21.050Z,58.53
2018-02-27T08:21:21.079Z,58.06
2018-02-27T08:22:21.085Z,57.5
2018-02-27T08:23:21.103Z,57.12
2018-02-27T08:24:20.846Z,56.55
2018-02-27T08:25:21.133Z,56.27
2018-02-27T08:26:21.138Z,56.55
2018-02-27T08:27:21.154Z,55.23
2018-02-27T08:28:35.842Z,55.51
2018-02-27T08:29:21.193Z,56.46
2018-02-27T08:31:21.207Z,56.36
2018-02-27T08:32:21.230Z,55.89
2018-02-27T08:33:21.238Z,55.61
2018-02-27T08:34:21.248Z,55.8
2018-02-27T08:35:21.001Z,55.51
2018-02-27T08:36:21.273Z,55.13
2018-02-27T08:37:21.288Z,55.13
2018-02-27T08:38:21.305Z,55.23
2018-02-27T08:39:21.319Z,55.23
2018-02-27T08:40:21.324Z,54.94
2018-02-27T08:41:21.349Z,55.13
2018-02-27T08:42:21.102Z,54.38
2018-02-27T08:43:21.112Z,55.2
2018-02-27T08:44:36.040Z,55.01
2018-02-27T08:45:21.396Z,55.23
2018-02-27T08:46:21.413Z,55.32
2018-02-27T08:47:21.417Z,55.61
2018-02-27T08:48:21.430Z,55.04
2018-02-27T08:49:21.443Z,55.04
2018-02-27T08:50:21.196Z,55.13
2018-02-27T08:51:21.467Z,54.94
2018-02-27T08:52:21.478Z,55.23
2018-02-27T08:53:21.491Z,54.38
2018-02-27T08:54:21.514Z,54.1
2018-02-27T08:55:21.517Z,54.1
2018-02-27T08:56:21.535Z,54.47
2018-02-27T08:58:21.556Z,54.19
2018-02-27T08:59:21.566Z,54
2018-02-27T09:00:36.242Z,53.91
2018-02-27T09:01:21.605Z,53.91
2018-02-27T09:02:21.614Z,53.72
2018-02-27T09:03:21.628Z,53.72
2018-02-27T09:05:21.662Z,53.81
2018-02-27T09:06:21.663Z,53.53
2018-02-27T09:07:21.419Z,53.06
2018-02-27T09:08:21.689Z,53.06
2018-02-27T09:09:21.705Z,52.96
2018-02-27T09:10:21.713Z,53.15
2018-02-27T09:11:21.733Z,52.8
2018-02-27T09:12:21.737Z,52.7
2018-02-27T09:13:21.755Z,52.4
2018-02-27T09:14:21.760Z,52.11
2018-02-27T09:15:21.770Z,52.49
2018-02-27T09:16:36.443Z,52.4
2018-02-27T09:17:21.808Z,51.92
2018-02-27T09:18:21.811Z,52.02
2018-02-27T09:19:21.957Z,52.02
2018-02-27T09:20:21.923Z,52.3
2018-02-27T09:21:21.851Z,52.04
2018-02-27T09:22:21.876Z,51.83
2018-02-27T09:24:21.642Z,52.04
2018-02-27T09:25:21.647Z,52.04
2018-02-27T09:26:21.920Z,52.14
2018-02-27T09:27:21.930Z,51.67
2018-02-27T09:28:21.947Z,51.64
2018-02-27T09:29:21.960Z,51.83
2018-02-27T09:30:21.973Z,52.3
2018-02-27T09:31:36.650Z,52.3
2018-02-27T09:32:22.003Z,52.4
2018-02-27T09:33:22.017Z,52.23
2018-02-27T09:34:22.026Z,51.95
2018-02-27T09:35:22.054Z,51.57
2018-02-27T09:36:22.068Z,51.73
2018-02-27T09:37:22.080Z,51.29
2018-02-27T09:41:22.132Z,51.45
2018-02-27T09:42:22.143Z,51.45
2018-02-27T09:43:22.155Z,51.54
2018-02-27T09:44:22.167Z,51.73
2018-02-27T09:45:21.923Z,51.54
2018-02-27T09:46:22.198Z,51.67
2018-02-27T09:47:22.223Z,51.1
2018-02-27T09:48:22.225Z,51.07
2018-02-27T09:49:22.239Z,51.07
2018-02-27T09:50:22.262Z,51.73
2018-02-27T09:51:22.266Z,51.29
2018-02-27T09:52:22.280Z,51.2
2018-02-27T09:53:22.308Z,51.1
2018-02-27T09:54:22.316Z,51.1
2018-02-27T09:56:22.375Z,50.91
2018-02-27T09:57:22.357Z,50.35
2018-02-27T09:58:22.369Z,50.06
2018-02-27T09:59:22.389Z,49.68
2018-02-27T10:00:22.400Z,49.49
2018-02-27T10:01:22.433Z,48.74
2018-02-27T10:02:22.431Z,49.02
2018-02-27T10:03:37.099Z,48.46
2018-02-27T10:04:22.455Z,48.74
2018-02-27T10:05:22.472Z,48.74
2018-02-27T10:06:22.485Z,49.11
2018-02-27T10:07:22.240Z,49.11
2018-02-27T10:08:22.518Z,49.3
2018-02-27T10:09:22.530Z,49.02
2018-02-27T10:10:22.282Z,48.83
2018-02-27T10:11:22.562Z,48.83
2018-02-27T10:12:22.577Z,48.83
2018-02-27T10:13:22.596Z,49.02
2018-02-27T10:14:22.611Z,48.93
2018-02-27T10:15:22.630Z,48.83
2018-02-27T10:16:22.632Z,48.93
2018-02-27T10:17:22.648Z,48.83
2018-02-27T10:18:22.674Z,49.09
2018-02-27T10:19:37.343Z,49.76
2018-02-27T10:20:22.693Z,49.94
2018-02-27T10:21:22.704Z,49.78
2018-02-27T10:22:22.727Z,49.47
2018-02-27T10:23:22.746Z,49.47
2018-02-27T10:24:22.744Z,49.66
2018-02-27T10:25:22.769Z,49.57
2018-02-27T10:26:22.518Z,49.66
2018-02-27T10:27:22.542Z,50.44
2018-02-27T10:28:22.802Z,50.44
2018-02-27T10:29:22.831Z,49.87
2018-02-27T10:31:22.853Z,49.3
2018-02-27T10:32:22.864Z,49.68
2018-02-27T10:33:22.616Z,49.49
2018-02-27T10:34:22.888Z,49.28
2018-02-27T10:35:37.562Z,49.38
2018-02-27T10:36:22.919Z,49.68
2018-02-27T10:37:22.936Z,49.78
2018-02-27T10:38:22.691Z,50.35
2018-02-27T10:39:22.959Z,50.44
2018-02-27T10:40:22.973Z,50.35
2018-02-27T10:41:23.005Z,49.8
2018-02-27T10:42:23.009Z,49.59
2018-02-27T10:44:22.770Z,49.59
2018-02-27T10:45:23.114Z,49.4
2018-02-27T10:46:23.182Z,49.02
2018-02-27T10:47:22.812Z,48.93
2018-02-27T10:48:23.094Z,49.02
2018-02-27T10:49:23.098Z,49.59
2018-02-27T10:50:23.135Z,49.4
2018-02-27T10:51:37.789Z,49.49
2018-02-27T10:52:23.137Z,49.4
2018-02-27T10:53:23.158Z,49.11
2018-02-27T10:54:23.175Z,48.93
2018-02-27T10:55:23.183Z,48.83
2018-02-27T10:56:23.212Z,48.74
2018-02-27T10:57:23.220Z,48.86
2018-02-27T10:58:23.229Z,49.11
2018-02-27T10:59:23.231Z,48.83
2018-02-27T11:00:23.292Z,48.83
2018-02-27T11:01:23.274Z,48.95
2018-02-27T11:02:23.286Z,48.65
2018-02-27T11:03:23.298Z,48.55
2018-02-27T11:04:23.309Z,47.89
2018-02-27T11:05:23.319Z,48.36
2018-02-27T11:06:37.990Z,48.55
2018-02-27T11:07:23.137Z,48.65
2018-02-27T11:08:23.361Z,48.74
2018-02-27T11:09:23.369Z,49.11
2018-02-27T11:10:23.395Z,49.68
2018-02-27T11:11:23.400Z,49.68
2018-02-27T11:12:23.407Z,49.78
2018-02-27T11:13:23.427Z,49.87
2018-02-27T11:14:23.447Z,49.49
2018-02-27T11:15:23.458Z,49.3
2018-02-27T11:16:23.476Z,49.3
2018-02-27T11:17:23.480Z,49.78
2018-02-27T11:18:23.486Z,50.63
2018-02-27T11:19:23.502Z,49.87
2018-02-27T11:20:23.513Z,49.68
2018-02-27T11:21:23.529Z,49.59
2018-02-27T11:22:23.551Z,49.4
2018-02-27T11:23:23.566Z,49.3
2018-02-27T11:25:23.582Z,48.83
2018-02-27T11:26:23.605Z,49.4
2018-02-27T11:27:23.609Z,49.49
2018-02-27T11:28:23.631Z,49.68
2018-02-27T11:29:23.637Z,49.78
2018-02-27T11:30:23.654Z,50.35
2018-02-27T11:31:23.663Z,50.44
2018-02-27T11:33:23.685Z,50.09
2018-02-27T11:34:23.693Z,49.62
2018-02-27T11:35:23.729Z,49.49
2018-02-27T11:36:23.733Z,49.49
2018-02-27T11:37:23.736Z,49.87
2018-02-27T11:38:38.405Z,49.78
2018-02-27T11:39:23.762Z,49.87
2018-02-27T11:40:23.784Z,49.97
2018-02-27T11:41:23.798Z,49.59
2018-02-27T11:42:23.808Z,49.4
2018-02-27T11:43:23.916Z,49.97
2018-02-27T11:44:23.836Z,50.53
2018-02-27T11:45:23.847Z,50.44
2018-02-27T11:46:23.592Z,50.63
2018-02-27T11:47:23.877Z,50.35
2018-02-27T11:48:23.886Z,50.35
2018-02-27T11:49:23.628Z,50.53
2018-02-27T11:50:23.920Z,50.72
2018-02-27T11:51:23.915Z,51.1
2018-02-27T11:52:23.671Z,51.48
2018-02-27T11:53:23.943Z,51.48
2018-02-27T11:54:38.610Z,51.2
2018-02-27T11:55:23.705Z,51.01
2018-02-27T11:56:23.989Z,50.72
2018-02-27T11:57:23.995Z,50.82
2018-02-27T11:58:24.004Z,51.29
2018-02-27T11:59:24.015Z,51.48
2018-02-27T12:00:24.026Z,51.76
2018-02-27T12:01:24.037Z,51.57
2018-02-27T12:02:24.086Z,51.29
2018-02-27T12:03:24.064Z,51.1
2018-02-27T12:04:24.088Z,51.29
2018-02-27T12:06:24.108Z,51.95
2018-02-27T12:07:24.120Z,51.95
2018-02-27T12:08:24.124Z,52.07
2018-02-27T12:09:24.141Z,51.88
2018-02-27T12:10:38.811Z,51.41
2018-02-27T12:11:24.174Z,50.84
2018-02-27T12:12:24.182Z,50.56
2018-02-27T12:13:24.201Z,49.9
2018-02-27T12:14:24.197Z,49.62
2018-02-27T12:15:24.252Z,49.43
2018-02-27T12:16:24.240Z,49.97
2018-02-27T12:17:24.239Z,49.8
2018-02-27T12:18:24.248Z,49.62
2018-02-27T12:19:24.268Z,49.62
2018-02-27T12:20:24.276Z,49.24
2018-02-27T12:22:24.311Z,49.49
2018-02-27T12:23:24.072Z,49.4
2018-02-27T12:24:24.327Z,49.21
2018-02-27T12:25:24.354Z,49.21
2018-02-27T12:26:39.010Z,49.21
2018-02-27T12:27:24.367Z,49.49
2018-02-27T12:28:24.386Z,49.68
2018-02-27T12:30:24.401Z,49.78
2018-02-27T12:31:24.414Z,49.97
2018-02-27T12:32:24.423Z,50.25
2018-02-27T12:34:24.459Z,50.82
2018-02-27T12:35:24.474Z,50.91
2018-02-27T12:36:24.490Z,50.91
2018-02-27T12:37:24.553Z,51.22
2018-02-27T12:39:24.516Z,50.94
2018-02-27T12:40:24.535Z,50.56
2018-02-27T12:41:39.204Z,50.56
2018-02-27T12:42:24.551Z,50.46
2018-02-27T12:43:24.586Z,50.46
2018-02-27T12:44:24.579Z,49.9
2018-02-27T12:45:24.599Z,49.99
2018-02-27T12:46:24.602Z,49.9
2018-02-27T12:47:24.614Z,49.9
2018-02-27T12:48:24.631Z,49.8
2018-02-27T12:49:24.642Z,49.71
2018-02-27T12:50:24.664Z,49.71
2018-02-27T12:52:24.680Z,49.59
2018-02-27T12:53:24.701Z,49.8
2018-02-27T12:54:24.702Z,49.62
2018-02-27T12:55:24.726Z,49.99
2018-02-27T12:56:24.726Z,49.9
2018-02-27T12:57:24.745Z,49.71
2018-02-27T12:58:24.755Z,49.8
2018-02-27T12:59:24.766Z,49.52
2018-02-27T13:00:24.786Z,49.9
2018-02-27T13:01:24.806Z,49.9
2018-02-27T13:02:24.817Z,49.8
2018-02-27T13:04:24.832Z,50.56
2018-02-27T13:05:24.590Z,50.46
2018-02-27T13:06:24.858Z,50.09
2018-02-27T13:07:24.879Z,49.73
2018-02-27T13:08:24.887Z,49.35
2018-02-27T13:09:24.894Z,49.16
2018-02-27T13:10:24.911Z,49.16
2018-02-27T13:11:24.933Z,48.88
2018-02-27T13:12:24.944Z,49.07
2018-02-27T13:13:39.603Z,48.97
2018-02-27T13:14:24.955Z,49.07
2018-02-27T13:15:24.971Z,47.85
2018-02-27T13:16:25.007Z,47.75
2018-02-27T13:17:25.059Z,47.94
2018-02-27T13:18:25.011Z,48.03
2018-02-27T13:19:25.039Z,47.85
2018-02-27T13:20:24.782Z,47.66
2018-02-27T13:21:25.052Z,47.66
2018-02-27T13:23:25.081Z,48.13
2018-02-27T13:24:25.102Z,47.94
2018-02-27T13:25:25.130Z,47.85
2018-02-27T13:26:25.117Z,48.6
2018-02-27T13:27:25.136Z,48.22
2018-02-27T13:28:25.140Z,47.66
2018-02-27T13:29:39.813Z,47.85
2018-02-27T13:30:25.182Z,48.13
2018-02-27T13:31:25.182Z,48.88
2018-02-27T13:32:25.195Z,48.97
2018-02-27T13:33:25.211Z,49.05
2018-02-27T13:34:25.225Z,49.33
2018-02-27T13:35:25.243Z,49.24
2018-02-27T13:36:25.254Z,49.71
2018-02-27T13:37:25.269Z,49.99
2018-02-27T13:39:25.294Z,50.75
2018-02-27T13:40:25.315Z,51.13
2018-02-27T13:41:25.325Z,50.94
2018-02-27T13:42:25.327Z,51.22
2018-02-27T13:43:25.352Z,51.34
2018-02-27T13:44:25.388Z,50.56
2018-02-27T13:45:40.021Z,50.94
2018-02-27T13:46:25.390Z,51.32
2018-02-27T13:47:25.397Z,52.07
2018-02-27T13:48:25.411Z,52.07
2018-02-27T13:49:27.618Z,52.55